Time;durP1;ratioP1;P1;durP2;ratioP2;P2;SDS_P1;SDS_P2;PMS_P1;PMS_P2;Temp;Humidity;BMP_temperature;BMP_pressure;BME280_temperature;BME280_humidity;BME280_pressure;Samples;Min_cycle;Max_cycle;Signal;HPM_P1;HPM_P2
2021/09/30 00:00:02;;;;;;;;;;;;;;;8.03;79.08;97531.28;5075203;28;19963;-82
2021/09/30 00:02:28;;;;;;;;;;;;;;;8.00;79.52;97542.06;5075608;28;19972;-82
2021/09/30 00:04:54;;;;;;;;;;;;;;;7.94;78.99;97535.75;5075368;28;19957;-82
2021/09/30 00:07:20;;;;;;;;;;;;;;;7.93;79.25;97541.94;5074333;28;20044;-82
2021/09/30 00:09:47;;;;;;;;;;;;;;;7.90;79.44;97545.72;5075902;28;20004;-82
2021/09/30 00:12:18;;;;;;;;;;;;;;;7.89;79.30;97536.25;5074945;28;19955;-82
2021/09/30 00:14:54;;;;;;;;;;;;;;;7.87;79.26;97543.47;5075341;28;19955;-82
2021/09/30 00:41:41;;;;;;;;;;;;;;;7.66;79.19;97554.50;5066301;28;19959;-83
2021/09/30 02:59:11;;;;;;;;;;;;;;;6.61;81.63;97596.41;5076372;28;19964;-82
2021/09/30 03:01:38;;;;;;;;;;;;;;;6.59;82.17;97585.34;5076330;28;19967;-82
2021/09/30 03:04:04;;;;;;;;;;;;;;;6.58;81.96;97586.34;5074857;28;19951;-82
2021/09/30 03:06:31;;;;;;;;;;;;;;;6.57;81.74;97591.69;5076795;28;20341;-83
2021/09/30 03:08:58;;;;;;;;;;;;;;;6.55;82.03;97588.44;5076390;28;19958;-82
2021/09/30 03:11:25;;;;;;;;;;;;;;;6.53;82.03;97591.25;5076182;28;19950;-82
2021/09/30 03:13:52;;;;;;;;;;;;;;;6.54;81.86;97592.84;5076540;28;20436;-82
2021/09/30 03:16:27;;;;;;;;;;;;;;;6.54;81.85;97595.47;5076422;28;19963;-83
2021/09/30 03:19:00;;;;;;;;;;;;;;;6.55;81.95;97594.50;5075976;28;19972;-83
2021/09/30 03:24:13;;;;;;;;;;;;;;;6.57;81.80;97595.13;5076529;28;19946;-82
2021/09/30 03:26:39;;;;;;;;;;;;;;;6.59;81.64;97590.56;5075996;28;20134;-82
2021/09/30 03:29:06;;;;;;;;;;;;;;;6.60;81.56;97596.59;5075814;28;19960;-82
2021/09/30 03:31:32;;;;;;;;;;;;;;;6.61;81.17;97598.22;5076281;28;19951;-82
2021/09/30 03:34:00;;;;;;;;;;;;;;;6.61;81.12;97606.03;5074683;28;19950;-82
2021/09/30 03:36:26;;;;;;;;;;;;;;;6.61;81.17;97613.84;5075976;28;19951;-82
2021/09/30 03:38:52;;;;;;;;;;;;;;;6.59;80.98;97608.78;5075496;28;19972;-82
2021/09/30 03:41:18;;;;;;;;;;;;;;;6.60;80.71;97604.41;5075833;28;19952;-82
2021/09/30 03:43:44;;;;;;;;;;;;;;;6.59;80.86;97613.19;5075504;28;19956;-83
2021/09/30 03:46:10;;;;;;;;;;;;;;;6.58;80.87;97620.22;5076011;28;19956;-83
2021/09/30 03:48:36;;;;;;;;;;;;;;;6.56;80.89;97616.97;5075488;28;20328;-83
2021/09/30 04:01:18;;;;;;;;;;;;;;;6.52;80.69;97636.50;5063888;28;19957;-83
2021/09/30 04:03:44;;;;;;;;;;;;;;;6.51;80.62;97632.28;5075474;28;19999;-83
2021/09/30 04:06:11;;;;;;;;;;;;;;;6.47;80.11;97631.78;5075231;28;20007;-83
2021/09/30 04:08:38;;;;;;;;;;;;;;;6.45;80.34;97630.31;5075096;28;19965;-83
2021/09/30 04:11:04;;;;;;;;;;;;;;;6.43;80.25;97637.50;5073621;28;19962;-83
2021/09/30 04:13:29;;;;;;;;;;;;;;;6.41;80.10;97629.81;5075535;28;20398;-83
2021/09/30 04:15:55;;;;;;;;;;;;;;;6.39;80.15;97630.97;5075469;28;19951;-83
2021/09/30 04:18:21;;;;;;;;;;;;;;;6.37;80.29;97635.53;5074806;28;19969;-83
2021/09/30 04:20:47;;;;;;;;;;;;;;;6.33;79.90;97629.81;5074873;28;20404;-83
2021/09/30 04:23:13;;;;;;;;;;;;;;;6.31;80.06;97631.78;5075087;28;19964;-83
2021/09/30 04:25:39;;;;;;;;;;;;;;;6.29;79.85;97642.34;5074753;28;19941;-83
2021/09/30 04:28:05;;;;;;;;;;;;;;;6.28;79.66;97645.13;5074730;28;19954;-83
2021/09/30 04:30:31;;;;;;;;;;;;;;;6.26;79.61;97634.88;5074924;28;19948;-83
2021/09/30 04:32:57;;;;;;;;;;;;;;;6.24;79.82;97631.59;5074579;28;19953;-83
2021/09/30 04:35:23;;;;;;;;;;;;;;;6.22;79.71;97632.75;5075159;28;20023;-83
2021/09/30 04:37:49;;;;;;;;;;;;;;;6.18;79.42;97636.66;5074734;28;20056;-83
2021/09/30 04:40:15;;;;;;;;;;;;;;;6.14;79.42;97635.34;5074882;28;19954;-83
2021/09/30 04:42:41;;;;;;;;;;;;;;;6.12;79.25;97635.47;5074595;28;19958;-83
2021/09/30 04:45:07;;;;;;;;;;;;;;;6.12;79.14;97638.09;5074871;28;19956;-83
2021/09/30 04:47:33;;;;;;;;;;;;;;;6.09;79.32;97644.44;5074475;28;20437;-83
2021/09/30 04:49:59;;;;;;;;;;;;;;;6.08;79.18;97636.78;5074388;28;20018;-83
2021/09/30 04:52:25;;;;;;;;;;;;;;;6.06;79.09;97644.75;5074278;28;19993;-83
2021/09/30 04:54:51;;;;;;;;;;;;;;;6.05;79.26;97644.94;5073990;28;19987;-83
2021/09/30 04:57:19;;;;;;;;;;;;;;;6.01;79.26;97652.22;5073591;28;20478;-83
2021/09/30 04:59:45;;;;;;;;;;;;;;;5.98;79.13;97636.91;5074446;28;19982;-84
2021/09/30 05:02:10;;;;;;;;;;;;;;;5.94;79.09;97651.19;5073865;28;19964;-83
2021/09/30 05:04:36;;;;;;;;;;;;;;;5.89;79.18;97651.66;5074304;28;19955;-83
2021/09/30 05:07:02;;;;;;;;;;;;;;;5.86;78.99;97656.41;5073922;28;19963;-83
2021/09/30 05:09:31;;;;;;;;;;;;;;;5.83;79.16;97651.50;5074399;28;19962;-83
2021/09/30 05:12:01;;;;;;;;;;;;;;;5.79;79.23;97647.56;5073442;28;19958;-83
2021/09/30 05:14:27;;;;;;;;;;;;;;;5.76;79.10;97640.91;5074042;28;19957;-83
2021/09/30 05:16:53;;;;;;;;;;;;;;;5.72;79.20;97644.78;5074177;28;19949;-83
2021/09/30 05:19:19;;;;;;;;;;;;;;;5.72;79.12;97649.19;5074047;28;19970;-83
2021/09/30 05:21:45;;;;;;;;;;;;;;;5.72;78.93;97649.19;5073906;28;19947;-83
2021/09/30 05:24:11;;;;;;;;;;;;;;;5.71;79.06;97658.75;5073922;28;19960;-83
2021/09/30 05:26:37;;;;;;;;;;;;;;;5.69;79.52;97664.13;5074453;28;20416;-83
2021/09/30 05:29:03;;;;;;;;;;;;;;;5.68;79.04;97666.91;5074064;28;20407;-83
2021/09/30 05:31:29;;;;;;;;;;;;;;;5.68;78.98;97674.69;5073834;28;20443;-83
2021/09/30 05:33:56;;;;;;;;;;;;;;;5.68;79.10;97670.31;5073618;28;20339;-83
2021/09/30 05:36:22;;;;;;;;;;;;;;;5.68;78.95;97675.50;5073623;28;19954;-83
2021/09/30 05:38:48;;;;;;;;;;;;;;;5.67;78.82;97670.47;5073800;28;19975;-83
2021/09/30 05:41:14;;;;;;;;;;;;;;;5.66;78.95;97674.84;5073726;28;19949;-83
2021/09/30 05:43:45;;;;;;;;;;;;;;;5.66;78.99;97677.44;5073708;28;19957;-83
2021/09/30 05:46:13;;;;;;;;;;;;;;;5.66;78.66;97682.66;5073775;28;19961;-84
2021/09/30 05:48:39;;;;;;;;;;;;;;;5.65;79.03;97681.03;5073773;28;19958;-84
2021/09/30 05:51:05;;;;;;;;;;;;;;;5.65;78.83;97673.22;5072354;28;19974;-84
2021/09/30 05:53:30;;;;;;;;;;;;;;;5.65;79.35;97678.44;5073636;28;19997;-83
2021/09/30 05:55:56;;;;;;;;;;;;;;;5.89;79.16;97677.69;5073428;28;20068;-83
2021/09/30 05:58:22;;;;;;;;;;;;;;;6.39;78.14;97678.69;5073280;28;19972;-83
2021/09/30 06:01:38;;;;;;;;;;;;;;;6.86;77.04;97667.59;5073411;28;19949;-83
2021/09/30 06:09:48;;;;;;;;;;;;;;;8.08;74.55;97670.88;5073313;28;19963;-83
2021/09/30 06:12:05;;;;;;;;;;;;;;;8.44;73.48;97670.34;5073117;28;19952;-83
2021/09/30 06:14:33;;;;;;;;;;;;;;;8.75;72.66;97664.22;5073554;28;19964;-83
2021/09/30 06:17:00;;;;;;;;;;;;;;;9.03;72.32;97664.50;5073257;28;19963;-83
2021/09/30 06:19:26;;;;;;;;;;;;;;;9.28;71.79;97654.59;5058935;28;19968;-83
2021/09/30 06:21:52;;;;;;;;;;;;;;;9.48;71.42;97664.53;5073065;28;20429;-83
2021/09/30 06:24:20;;;;;;;;;;;;;;;9.54;71.20;97672.47;5075808;28;20062;-83
2021/09/30 06:26:47;;;;;;;;;;;;;;;9.57;70.91;97666.03;5077000;28;19958;-83
2021/09/30 06:29:13;;;;;;;;;;;;;;;9.64;71.15;97671.38;5076958;28;19948;-83
2021/09/30 06:31:39;;;;;;;;;;;;;;;9.77;69.85;97673.38;5077231;28;19953;-84
2021/09/30 06:34:05;;;;;;;;;;;;;;;9.75;70.04;97676.97;5077156;28;19950;-83
2021/09/30 06:36:31;;;;;;;;;;;;;;;9.86;70.92;97673.06;5076961;28;20003;-83
2021/09/30 06:38:57;;;;;;;;;;;;;;;10.01;70.54;97670.41;5076738;28;20331;-83
2021/09/30 06:41:23;;;;;;;;;;;;;;;10.19;70.68;97669.22;5077049;28;19998;-82
2021/09/30 06:43:48;;;;;;;;;;;;;;;10.28;69.80;97673.34;5075568;28;20056;-82
2021/09/30 06:46:15;;;;;;;;;;;;;;;10.22;69.46;97674.91;5076521;28;19957;-82
2021/09/30 06:48:40;;;;;;;;;;;;;;;10.13;69.61;97681.25;5076955;28;20419;-83
2021/09/30 06:51:06;;;;;;;;;;;;;;;10.22;70.50;97687.19;5076353;28;20028;-82
2021/09/30 06:53:32;;;;;;;;;;;;;;;10.27;68.34;97680.41;5076652;28;20382;-82
2021/09/30 06:56:07;;;;;;;;;;;;;;;10.22;69.31;97682.75;5076862;28;20336;-82
2021/09/30 06:58:40;;;;;;;;;;;;;;;10.13;67.06;97668.16;5076666;28;19977;-83
2021/09/30 07:01:07;;;;;;;;;;;;;;;10.00;69.10;97688.97;5076375;28;19955;-82
2021/09/30 07:03:33;;;;;;;;;;;;;;;9.94;70.30;97696.56;5076406;28;19957;-82
2021/09/30 07:05:59;;;;;;;;;;;;;;;10.02;70.23;97695.66;5076162;28;19956;-82
2021/09/30 07:08:25;;;;;;;;;;;;;;;10.06;69.30;97693.50;5076771;28;19940;-82
2021/09/30 07:10:51;;;;;;;;;;;;;;;10.23;70.95;97697.50;5076695;28;19954;-82
2021/09/30 07:13:17;;;;;;;;;;;;;;;10.47;70.79;97696.38;5076237;28;19965;-82
2021/09/30 07:15:43;;;;;;;;;;;;;;;10.61;69.26;97688.66;5076147;28;19951;-83
2021/09/30 07:18:10;;;;;;;;;;;;;;;10.66;69.72;97697.56;5076416;28;19962;-82
2021/09/30 07:20:36;;;;;;;;;;;;;;;10.71;69.11;97697.03;5074138;28;19972;-83
2021/09/30 07:23:02;;;;;;;;;;;;;;;10.67;67.97;97690.53;5076624;28;19961;-83
2021/09/30 07:25:28;;;;;;;;;;;;;;;10.68;68.25;97692.13;5075959;28;19988;-82
2021/09/30 07:27:54;;;;;;;;;;;;;;;10.72;68.51;97696.81;5076005;28;19962;-82
2021/09/30 07:30:20;;;;;;;;;;;;;;;10.69;68.71;97702.47;5076069;28;20016;-82
2021/09/30 07:32:46;;;;;;;;;;;;;;;10.71;69.17;97704.91;5076033;28;20042;-82
2021/09/30 07:35:11;;;;;;;;;;;;;;;10.68;68.53;97702.63;5075240;28;19958;-83
2021/09/30 07:37:37;;;;;;;;;;;;;;;10.77;68.20;97704.13;5075933;28;19958;-83
2021/09/30 07:40:04;;;;;;;;;;;;;;;10.96;68.99;97707.91;5075830;28;19966;-83
2021/09/30 07:42:30;;;;;;;;;;;;;;;11.15;68.72;97709.13;5076015;28;19986;-82
2021/09/30 07:44:56;;;;;;;;;;;;;;;11.24;68.49;97709.78;5075777;28;20397;-82
2021/09/30 07:47:24;;;;;;;;;;;;;;;11.24;67.75;97694.84;5075575;28;20029;-82
2021/09/30 07:49:50;;;;;;;;;;;;;;;11.30;68.74;97701.16;5075402;28;19964;-82
2021/09/30 07:52:16;;;;;;;;;;;;;;;11.47;68.78;97705.09;5075813;28;19957;-82
2021/09/30 07:54:41;;;;;;;;;;;;;;;11.43;68.08;97703.84;5075586;28;20004;-82
2021/09/30 07:57:07;;;;;;;;;;;;;;;11.27;68.37;97704.94;5075396;28;20070;-82
2021/09/30 07:59:33;;;;;;;;;;;;;;;11.11;68.74;97708.69;5074886;28;19971;-82
2021/09/30 08:02:00;;;;;;;;;;;;;;;10.97;69.04;97717.44;5075434;28;19995;-82
2021/09/30 08:04:25;;;;;;;;;;;;;;;11.00;69.43;97718.88;5075432;28;19959;-82
2021/09/30 08:06:51;;;;;;;;;;;;;;;11.05;70.59;97724.38;5075630;28;20349;-82
2021/09/30 08:09:19;;;;;;;;;;;;;;;10.99;69.53;97714.63;5075993;28;20030;-82
2021/09/30 08:11:48;;;;;;;;;;;;;;;10.90;70.22;97714.75;5075439;28;19961;-82
2021/09/30 08:14:14;;;;;;;;;;;;;;;10.88;71.05;97711.50;5075178;28;19969;-82
2021/09/30 08:16:40;;;;;;;;;;;;;;;10.79;70.38;97707.38;5074938;28;20425;-82
2021/09/30 08:19:06;;;;;;;;;;;;;;;10.71;70.87;97718.03;5075633;28;19969;-82
2021/09/30 08:21:32;;;;;;;;;;;;;;;10.68;70.87;97718.38;5075314;28;20321;-82
2021/09/30 08:23:58;;;;;;;;;;;;;;;10.57;71.49;97717.06;5075493;28;19948;-82
2021/09/30 08:26:24;;;;;;;;;;;;;;;10.62;72.00;97717.31;5074975;28;19965;-82
2021/09/30 08:28:51;;;;;;;;;;;;;;;10.62;71.07;97714.69;5074774;28;19948;-82
2021/09/30 08:31:19;;;;;;;;;;;;;;;10.60;71.89;97714.06;5074593;28;19960;-82
2021/09/30 08:33:45;;;;;;;;;;;;;;;10.49;71.57;97714.56;5063874;28;19954;-82
2021/09/30 08:36:13;;;;;;;;;;;;;;;10.41;72.96;97715.47;5074810;28;19959;-82
2021/09/30 08:38:40;;;;;;;;;;;;;;;10.34;72.02;97711.97;5074810;28;19959;-82
2021/09/30 08:41:06;;;;;;;;;;;;;;;10.41;72.33;97704.19;5074746;28;19957;-82
2021/09/30 08:43:32;;;;;;;;;;;;;;;10.53;72.06;97708.75;5074892;28;19950;-82
2021/09/30 08:45:58;;;;;;;;;;;;;;;10.62;72.09;97703.38;5073640;28;19954;-82
2021/09/30 08:48:25;;;;;;;;;;;;;;;10.78;72.29;97705.75;5074303;28;20068;-82
2021/09/30 08:50:51;;;;;;;;;;;;;;;10.83;72.09;97700.75;5073016;28;19983;-82
2021/09/30 08:53:17;;;;;;;;;;;;;;;10.89;72.16;97700.00;5074641;28;19956;-82
2021/09/30 08:55:43;;;;;;;;;;;;;;;10.94;72.34;97702.88;5074704;28;19962;-82
2021/09/30 08:58:09;;;;;;;;;;;;;;;10.87;70.35;97695.94;5074285;28;19959;-82
2021/09/30 09:00:39;;;;;;;;;;;;;;;10.79;72.25;97699.50;5074017;28;19973;-82
2021/09/30 09:03:05;;;;;;;;;;;;;;;10.81;72.32;97702.75;5074198;28;19983;-82
2021/09/30 09:05:31;;;;;;;;;;;;;;;10.83;70.19;97692.88;5074286;28;19950;-82
2021/09/30 09:08:01;;;;;;;;;;;;;;;10.81;70.76;97696.69;5074204;28;19956;-82
2021/09/30 09:10:39;;;;;;;;;;;;;;;10.77;70.58;97691.00;5074268;28;19962;-82
2021/09/30 09:13:05;;;;;;;;;;;;;;;10.85;71.10;97693.50;5058800;28;19961;-82
2021/09/30 09:15:41;;;;;;;;;;;;;;;11.00;69.99;97684.75;5073809;28;19968;-82
2021/09/30 09:18:14;;;;;;;;;;;;;;;11.14;70.81;97689.09;5073932;28;19955;-82
2021/09/30 09:20:40;;;;;;;;;;;;;;;11.28;70.52;97684.75;5073952;28;20448;-82
2021/09/30 09:23:08;;;;;;;;;;;;;;;11.41;70.07;97687.47;5073987;28;19960;-82
2021/09/30 09:25:34;;;;;;;;;;;;;;;11.44;69.54;97684.44;5073946;28;20426;-82
2021/09/30 09:28:00;;;;;;;;;;;;;;;11.40;69.19;97690.28;5073978;28;19963;-82
2021/09/30 09:30:41;;;;;;;;;;;;;;;11.32;69.31;97697.31;5073590;28;19953;-82
2021/09/30 09:33:07;;;;;;;;;;;;;;;11.31;69.29;97700.94;5073632;28;19962;-82
2021/09/30 09:35:46;;;;;;;;;;;;;;;11.40;66.90;97674.53;5073565;28;19953;-82
2021/09/30 09:38:12;;;;;;;;;;;;;;;11.47;64.97;97651.75;5073682;28;19951;-82
2021/09/30 09:40:38;;;;;;;;;;;;;;;11.52;66.68;97667.72;5073499;28;19980;-82
2021/09/30 09:43:23;;;;;;;;;;;;;;;11.58;66.51;97666.97;5073723;28;20318;-82
2021/09/30 09:45:49;;;;;;;;;;;;;;;11.62;63.52;97636.66;5073733;28;19951;-82
2021/09/30 09:48:15;;;;;;;;;;;;;;;11.71;66.39;97653.88;5073673;28;20363;-82
2021/09/30 09:50:41;;;;;;;;;;;;;;;11.81;63.38;97635.13;5071899;28;19994;-82
2021/09/30 09:53:07;;;;;;;;;;;;;;;11.83;63.13;97632.31;5073488;28;19963;-82
2021/09/30 09:55:35;;;;;;;;;;;;;;;11.83;63.18;97634.94;5073986;28;20415;-82
2021/09/30 09:58:08;;;;;;;;;;;;;;;11.76;63.15;97635.72;5077129;28;19969;-82
2021/09/30 10:00:35;;;;;;;;;;;;;;;11.74;64.00;97648.25;5078868;28;20410;-82
2021/09/30 10:03:16;;;;;;;;;;;;;;;11.78;65.98;97667.88;5080186;28;20345;-81
2021/09/30 10:05:43;;;;;;;;;;;;;;;11.86;65.02;97648.47;5079992;28;19958;-82
2021/09/30 10:08:09;;;;;;;;;;;;;;;11.76;63.20;97632.28;5080077;28;19958;-82
2021/09/30 10:10:36;;;;;;;;;;;;;;;11.67;63.85;97625.56;5080114;28;20402;-82
2021/09/30 10:13:02;;;;;;;;;;;;;;;11.71;66.35;97640.72;5080299;28;19953;-82
2021/09/30 10:15:28;;;;;;;;;;;;;;;11.82;65.02;97633.31;5079984;28;19965;-81
2021/09/30 10:17:54;;;;;;;;;;;;;;;11.95;65.72;97630.78;5080102;28;19958;-81
2021/09/30 10:20:20;;;;;;;;;;;;;;;12.03;64.52;97624.50;5080186;28;19984;-81
2021/09/30 10:22:50;;;;;;;;;;;;;;;12.10;63.84;97612.22;5080313;28;19962;-81
2021/09/30 10:25:16;;;;;;;;;;;;;;;12.19;62.21;97595.22;5079828;28;19945;-81
2021/09/30 10:27:43;;;;;;;;;;;;;;;12.38;64.75;97615.47;5079945;28;19959;-81
2021/09/30 10:30:29;;;;;;;;;;;;;;;12.59;61.52;97587.38;5079694;28;19953;-81
2021/09/30 10:32:54;;;;;;;;;;;;;;;12.70;61.93;97578.06;5079756;28;19960;-81
2021/09/30 10:35:30;;;;;;;;;;;;;;;12.75;62.22;97580.91;5080209;28;19963;-81
2021/09/30 10:38:14;;;;;;;;;;;;;;;12.74;61.63;97581.91;5079959;28;19956;-81
2021/09/30 10:40:58;;;;;;;;;;;;;;;12.88;63.61;97594.03;5079799;28;19981;-81
2021/09/30 10:43:31;;;;;;;;;;;;;;;12.96;59.93;97559.59;5065758;28;19948;-81
2021/09/30 10:45:58;;;;;;;;;;;;;;;13.02;60.63;97576.41;5079983;28;19955;-81
2021/09/30 10:48:23;;;;;;;;;;;;;;;13.12;58.13;97541.72;5079849;28;19964;-80
2021/09/30 10:50:59;;;;;;;;;;;;;;;13.27;59.88;97554.66;5080047;28;19988;-80
2021/09/30 10:53:44;;;;;;;;;;;;;;;13.29;55.71;97516.59;5069552;28;20421;-81
2021/09/30 10:56:33;;;;;;;;;;;;;;;13.44;58.30;97555.03;5079585;28;19956;-80
2021/09/30 10:59:00;;;;;;;;;;;;;;;13.67;56.82;97533.44;5079821;28;19956;-80
2021/09/30 11:01:26;;;;;;;;;;;;;;;13.70;56.70;97538.31;5079298;28;19977;-80
2021/09/30 11:04:05;;;;;;;;;;;;;;;13.60;58.17;97544.81;5079490;28;19963;-80
2021/09/30 11:06:31;;;;;;;;;;;;;;;13.58;56.83;97524.97;5079671;28;19961;-80
2021/09/30 11:09:15;;;;;;;;;;;;;;;13.65;57.80;97538.13;5077925;28;19965;-80
2021/09/30 11:11:48;;;;;;;;;;;;;;;13.66;53.80;97503.66;5076204;28;19950;-80
2021/09/30 11:14:16;;;;;;;;;;;;;;;13.65;56.64;97538.94;5076830;28;19959;-80
2021/09/30 11:16:47;;;;;;;;;;;;;;;13.76;53.10;97517.19;5064975;28;19956;-80
2021/09/30 11:19:24;;;;;;;;;;;;;;;13.86;54.71;97524.63;5076264;28;19956;-80
2021/09/30 11:21:50;;;;;;;;;;;;;;;13.96;54.74;97538.16;5064490;28;19957;-80
2021/09/30 11:24:18;;;;;;;;;;;;;;;14.16;54.89;97540.66;5075908;28;19955;-80
2021/09/30 11:26:47;;;;;;;;;;;;;;;14.13;52.53;97522.63;5076342;28;19958;-80
2021/09/30 11:29:22;;;;;;;;;;;;;;;14.22;52.85;97525.81;5076244;28;19952;-80
2021/09/30 11:31:57;;;;;;;;;;;;;;;14.43;54.05;97531.75;5075894;28;19944;-80
2021/09/30 11:34:28;;;;;;;;;;;;;;;14.66;55.27;97534.63;5076031;28;19958;-80
2021/09/30 11:36:56;;;;;;;;;;;;;;;14.90;53.96;97525.03;5076019;28;19963;-80
2021/09/30 11:39:22;;;;;;;;;;;;;;;14.96;49.96;97513.59;5075824;28;19967;-80
2021/09/30 11:41:49;;;;;;;;;;;;;;;14.95;50.34;97514.66;5075701;28;20308;-80
2021/09/30 11:44:16;;;;;;;;;;;;;;;15.04;52.23;97533.66;5075814;28;20430;-80
2021/09/30 11:46:42;;;;;;;;;;;;;;;15.16;50.13;97516.03;5075699;28;19954;-79
2021/09/30 11:49:10;;;;;;;;;;;;;;;15.31;51.46;97523.59;5075590;28;19954;-80
2021/09/30 11:51:41;;;;;;;;;;;;;;;15.43;52.36;97526.28;5075112;28;19985;-80
2021/09/30 11:54:11;;;;;;;;;;;;;;;15.49;49.28;97520.09;5075023;28;19964;-80
2021/09/30 11:56:38;;;;;;;;;;;;;;;15.47;47.33;97508.94;5075745;28;20414;-79
2021/09/30 11:59:07;;;;;;;;;;;;;;;15.43;47.44;97513.91;5075420;28;19951;-80
2021/09/30 12:01:41;;;;;;;;;;;;;;;15.48;47.85;97507.13;5075417;28;19972;-80
2021/09/30 12:04:08;;;;;;;;;;;;;;;15.26;46.17;97488.28;5075631;28;19964;-80
2021/09/30 12:06:46;;;;;;;;;;;;;;;15.05;47.21;97502.75;5075650;28;19959;-80
2021/09/30 12:09:16;;;;;;;;;;;;;;;14.89;51.93;97527.91;5061478;28;19955;-80
2021/09/30 12:11:50;;;;;;;;;;;;;;;14.93;49.95;97505.31;5075304;28;19964;-80
2021/09/30 12:14:17;;;;;;;;;;;;;;;14.96;47.50;97489.03;5075476;28;20283;-80
2021/09/30 12:16:57;;;;;;;;;;;;;;;15.02;46.55;97486.31;5075050;28;19950;-80
2021/09/30 12:19:29;;;;;;;;;;;;;;;14.92;45.10;97485.22;5074958;28;20434;-80
2021/09/30 12:21:55;;;;;;;;;;;;;;;14.91;48.25;97502.91;5074250;28;19968;-80
2021/09/30 12:24:23;;;;;;;;;;;;;;;14.96;49.32;97510.97;5074866;28;19962;-80
2021/09/30 12:26:49;;;;;;;;;;;;;;;14.98;44.49;97471.13;5074983;28;19956;-80
2021/09/30 12:29:19;;;;;;;;;;;;;;;14.97;47.43;97493.28;5075012;28;20325;-80
2021/09/30 12:31:46;;;;;;;;;;;;;;;15.12;50.78;97511.41;5073845;28;19950;-80
2021/09/30 12:34:24;;;;;;;;;;;;;;;15.35;50.78;97513.38;5074620;28;19958;-80
2021/09/30 12:36:51;;;;;;;;;;;;;;;15.54;48.23;97487.72;5074699;28;19958;-80
2021/09/30 12:39:24;;;;;;;;;;;;;;;15.69;50.18;97503.19;5074452;28;20401;-80
2021/09/30 12:41:50;;;;;;;;;;;;;;;15.82;46.64;97464.16;5073495;28;19958;-80
2021/09/30 12:44:16;;;;;;;;;;;;;;;15.81;46.10;97454.63;5074634;28;19965;-80
2021/09/30 12:46:47;;;;;;;;;;;;;;;15.71;45.56;97459.63;5074962;28;19964;-80
2021/09/30 12:49:14;;;;;;;;;;;;;;;15.83;46.91;97473.72;5074640;28;19958;-80
2021/09/30 12:51:40;;;;;;;;;;;;;;;15.99;45.79;97458.22;5074141;28;19992;-80
2021/09/30 12:54:05;;;;;;;;;;;;;;;16.15;48.04;97475.28;5074512;28;19962;-80
2021/09/30 12:56:33;;;;;;;;;;;;;;;16.15;45.06;97439.03;5073637;28;20335;-80
2021/09/30 12:59:11;;;;;;;;;;;;;;;16.03;44.02;97456.72;5074147;28;19962;-80
2021/09/30 13:01:37;;;;;;;;;;;;;;;15.99;44.72;97455.56;5074322;28;19978;-79
2021/09/30 13:04:04;;;;;;;;;;;;;;;16.02;43.27;97445.34;5074122;28;19964;-80
2021/09/30 13:06:31;;;;;;;;;;;;;;;16.01;44.43;97438.44;5074050;28;19955;-80
2021/09/30 13:08:56;;;;;;;;;;;;;;;15.93;44.27;97440.59;5074149;28;19958;-80
2021/09/30 13:11:30;;;;;;;;;;;;;;;15.82;43.34;97442.19;5074479;28;20010;-80
2021/09/30 13:14:15;;;;;;;;;;;;;;;15.79;44.29;97450.56;5061567;28;19962;-80
2021/09/30 13:16:41;;;;;;;;;;;;;;;15.66;42.53;97437.53;5073652;28;19961;-80
2021/09/30 13:19:07;;;;;;;;;;;;;;;15.62;46.06;97453.03;5074028;28;20431;-80
2021/09/30 13:21:52;;;;;;;;;;;;;;;15.66;44.13;97437.53;5073881;28;19989;-80
2021/09/30 13:24:18;;;;;;;;;;;;;;;15.70;46.17;97443.97;5074050;28;19952;-80
2021/09/30 13:26:44;;;;;;;;;;;;;;;15.65;44.41;97425.34;5073797;28;19960;-80
2021/09/30 13:29:09;;;;;;;;;;;;;;;15.69;43.99;97429.94;5073593;28;20331;-80
2021/09/30 13:31:36;;;;;;;;;;;;;;;15.80;44.49;97436.34;5073899;28;19951;-80
2021/09/30 13:34:02;;;;;;;;;;;;;;;15.94;44.14;97418.44;5073793;28;19961;-80
2021/09/30 13:36:30;;;;;;;;;;;;;;;15.98;44.61;97412.44;5074256;28;20046;-79
2021/09/30 13:38:56;;;;;;;;;;;;;;;16.08;45.02;97419.00;5073751;28;19958;-80
2021/09/30 13:41:22;;;;;;;;;;;;;;;16.14;43.45;97396.91;5073473;28;19983;-80
2021/09/30 13:43:48;;;;;;;;;;;;;;;16.26;42.93;97392.44;5073415;28;20413;-80
2021/09/30 13:46:14;;;;;;;;;;;;;;;16.37;45.05;97410.13;5072115;28;20414;-80
2021/09/30 13:48:40;;;;;;;;;;;;;;;16.44;42.94;97387.00;5073815;28;19950;-80
2021/09/30 13:51:06;;;;;;;;;;;;;;;16.44;43.56;97394.97;5073502;28;19985;-80
2021/09/30 13:53:32;;;;;;;;;;;;;;;16.48;44.54;97397.13;5073455;28;19970;-80
2021/09/30 13:55:58;;;;;;;;;;;;;;;16.43;43.74;97398.63;5073462;28;20316;-81
2021/09/30 13:58:24;;;;;;;;;;;;;;;16.32;43.00;97409.25;5073621;28;20005;-80
2021/09/30 14:00:50;;;;;;;;;;;;;;;16.17;43.06;97407.06;5073513;28;20061;-80
2021/09/30 14:03:16;;;;;;;;;;;;;;;16.17;43.57;97407.84;5074042;28;20007;-80
2021/09/30 14:05:42;;;;;;;;;;;;;;;16.20;42.52;97391.50;5073376;28;20036;-80
2021/09/30 14:08:08;;;;;;;;;;;;;;;16.23;44.36;97396.34;5073118;28;20402;-80
2021/09/30 14:10:34;;;;;;;;;;;;;;;16.19;41.93;97384.63;5073266;28;19984;-80
2021/09/30 14:13:00;;;;;;;;;;;;;;;16.13;43.04;97393.47;5072937;28;19954;-80
2021/09/30 14:15:26;;;;;;;;;;;;;;;16.15;42.36;97377.38;5072988;28;20059;-80
2021/09/30 14:17:52;;;;;;;;;;;;;;;16.09;42.59;97379.09;5073113;28;20324;-80
2021/09/30 14:20:18;;;;;;;;;;;;;;;15.95;40.82;97369.75;5072722;28;19972;-80
2021/09/30 14:22:44;;;;;;;;;;;;;;;15.77;43.25;97389.16;5072853;28;19970;-80
2021/09/30 14:25:10;;;;;;;;;;;;;;;15.70;43.50;97394.53;5072798;28;19958;-80
2021/09/30 14:27:36;;;;;;;;;;;;;;;15.65;43.49;97394.41;5073196;28;19955;-80
2021/09/30 14:30:03;;;;;;;;;;;;;;;15.68;43.05;97383.38;5072850;28;20359;-80
2021/09/30 14:32:29;;;;;;;;;;;;;;;15.64;45.03;97395.44;5073211;28;19957;-80
2021/09/30 14:34:55;;;;;;;;;;;;;;;15.61;44.53;97388.75;5072643;28;20015;-81
2021/09/30 14:37:21;;;;;;;;;;;;;;;15.69;45.64;97398.22;5072981;28;19962;-80
2021/09/30 14:39:47;;;;;;;;;;;;;;;15.67;43.39;97373.84;5072719;28;19958;-80
2021/09/30 14:42:13;;;;;;;;;;;;;;;15.52;43.41;97379.56;5072745;28;19966;-80
2021/09/30 14:44:40;;;;;;;;;;;;;;;15.45;41.61;97354.25;5074528;28;19955;-80
2021/09/30 14:47:06;;;;;;;;;;;;;;;15.35;44.25;97382.03;5076461;28;19959;-80
2021/09/30 14:49:37;;;;;;;;;;;;;;;15.20;40.07;97344.63;5076335;28;20427;-79
2021/09/30 14:52:03;;;;;;;;;;;;;;;15.06;42.42;97362.53;5076472;28;19955;-80
2021/09/30 14:54:29;;;;;;;;;;;;;;;14.98;43.01;97368.91;5076673;28;20440;-80
2021/09/30 14:56:55;;;;;;;;;;;;;;;14.99;46.59;97389.03;5076988;28;19961;-80
2021/09/30 14:59:21;;;;;;;;;;;;;;;15.06;47.26;97388.94;5076579;28;19964;-80
2021/09/30 15:01:47;;;;;;;;;;;;;;;15.10;45.97;97371.63;5076643;28;20349;-80
2021/09/30 15:04:13;;;;;;;;;;;;;;;15.07;43.75;97355.41;5076569;28;20043;-81
2021/09/30 15:06:39;;;;;;;;;;;;;;;15.02;45.18;97369.28;5076381;28;20440;-81
2021/09/30 15:09:06;;;;;;;;;;;;;;;14.96;43.41;97339.28;5076751;28;20336;-81
2021/09/30 15:11:32;;;;;;;;;;;;;;;14.91;44.58;97348.88;5076707;28;20412;-81
2021/09/30 15:13:58;;;;;;;;;;;;;;;14.86;44.37;97346.13;5076034;28;20036;-81
2021/09/30 15:16:26;;;;;;;;;;;;;;;14.82;41.43;97336.00;5076232;28;19956;-81
2021/09/30 15:18:54;;;;;;;;;;;;;;;14.79;43.43;97341.72;5076136;28;19964;-81
2021/09/30 15:21:21;;;;;;;;;;;;;;;14.72;40.57;97319.88;5075044;28;19978;-81
2021/09/30 15:23:47;;;;;;;;;;;;;;;14.69;44.70;97349.38;5076207;28;19957;-80
2021/09/30 15:26:16;;;;;;;;;;;;;;;14.65;45.43;97347.38;5076258;28;19951;-80
2021/09/30 15:28:42;;;;;;;;;;;;;;;14.55;41.68;97311.78;5076068;28;20413;-80
2021/09/30 15:31:08;;;;;;;;;;;;;;;14.48;43.13;97323.41;5076444;28;19961;-80
2021/09/30 15:33:35;;;;;;;;;;;;;;;14.41;44.18;97326.91;5075839;28;19958;-80
2021/09/30 15:36:00;;;;;;;;;;;;;;;14.37;43.19;97331.03;5075796;28;19956;-80
2021/09/30 15:38:26;;;;;;;;;;;;;;;14.31;43.86;97329.25;5075535;28;19954;-80
2021/09/30 15:40:56;;;;;;;;;;;;;;;14.32;45.76;97337.97;5075790;28;20068;-80
2021/09/30 15:43:24;;;;;;;;;;;;;;;14.32;42.01;97319.50;5075618;28;19964;-80
2021/09/30 15:45:54;;;;;;;;;;;;;;;14.30;46.94;97342.66;5075417;28;19961;-80
2021/09/30 15:48:20;;;;;;;;;;;;;;;14.27;45.56;97330.72;5075670;28;19963;-81
2021/09/30 15:50:46;;;;;;;;;;;;;;;14.25;43.16;97321.41;5075191;28;20027;-81